Time;durP1;ratioP1;P1;durP2;ratioP2;P2;SDS_P1;SDS_P2;PMS_P1;PMS_P2;Temp;Humidity;BMP_temperature;BMP_pressure;BME280_temperature;BME280_humidity;BME280_pressure;Samples;Min_cycle;Max_cycle;Signal;HPM_P1;HPM_P2
2022/03/01 00:02:05;;;;;;;4.57;4.20;;;;;;;2.80;100.00;100347.84;4991469;28;20234;-79
2022/03/01 00:04:32;;;;;;;5.23;4.00;;;;;;;2.76;100.00;100346.06;4991295;28;20211;-79
2022/03/01 00:06:59;;;;;;;5.27;4.77;;;;;;;2.69;100.00;100344.25;4991546;28;20207;-80
2022/03/01 00:09:25;;;;;;;5.10;4.53;;;;;;;2.63;100.00;100343.25;4991593;28;20197;-79
2022/03/01 00:11:52;;;;;;;5.13;4.63;;;;;;;2.63;100.00;100344.13;4991541;28;20597;-78
2022/03/01 00:14:21;;;;;;;5.60;5.10;;;;;;;2.64;100.00;100345.00;4992137;28;20203;-78
2022/03/01 00:16:48;;;;;;;5.93;5.10;;;;;;;2.35;100.00;100283.91;4991872;28;20207;-80
2022/03/01 00:19:15;;;;;;;5.37;4.97;;;;;;;2.71;100.00;100339.97;4991787;28;20737;-79
2022/03/01 00:21:41;;;;;;;5.97;5.40;;;;;;;2.65;100.00;100334.78;4991316;28;20256;-77
2022/03/01 00:24:08;;;;;;;4.97;4.57;;;;;;;2.56;100.00;100332.06;4990932;28;20243;-78
2022/03/01 00:26:35;;;;;;;5.37;4.87;;;;;;;2.62;100.00;100341.53;4991036;28;20199;-77
2022/03/01 00:29:02;;;;;;;5.47;4.97;;;;;;;2.63;100.00;100330.44;4990672;28;20206;-77
2022/03/01 00:31:31;;;;;;;9.57;5.57;;;;;;;2.48;100.00;100293.47;4990840;28;20810;-77
2022/03/01 00:33:58;;;;;;;5.90;5.30;;;;;;;2.48;100.00;100295.22;4990526;28;20284;-76
2022/03/01 00:36:25;;;;;;;4.87;4.47;;;;;;;2.69;100.00;100318.63;4993418;28;20199;-77
2022/03/01 00:38:52;;;;;;;4.77;4.43;;;;;;;2.44;100.00;100296.00;4994401;28;20200;-77
2022/03/01 00:41:19;;;;;;;5.17;4.77;;;;;;;2.65;100.00;100319.41;4994441;28;20698;-77
2022/03/01 00:43:46;;;;;;;4.83;4.10;;;;;;;2.34;100.00;100289.00;4994199;28;20231;-77
2022/03/01 00:46:12;;;;;;;4.43;4.03;;;;;;;2.37;100.00;100315.50;4994032;28;20199;-77
2022/03/01 00:48:41;;;;;;;4.90;4.50;;;;;;;2.39;100.00;100312.97;4994581;28;20196;-78
2022/03/01 00:51:08;;;;;;;5.27;4.63;;;;;;;2.43;100.00;100304.50;4994930;28;20622;-77
2022/03/01 00:53:35;;;;;;;5.50;5.10;;;;;;;2.35;100.00;100311.22;4994467;28;20192;-77
2022/03/01 00:56:04;;;;;;;5.27;4.77;;;;;;;1.94;100.00;100246.47;4994094;28;20203;-76
2022/03/01 00:58:31;;;;;;;5.43;4.93;;;;;;;2.12;100.00;100275.81;4994151;28;20202;-77
2022/03/01 01:00:58;;;;;;;5.53;5.03;;;;;;;2.25;100.00;100293.97;4994011;28;20286;-76
2022/03/01 01:03:25;;;;;;;5.70;5.13;;;;;;;2.24;100.00;100299.91;4993692;28;20222;-76
2022/03/01 01:05:53;;;;;;;5.90;5.20;;;;;;;2.30;100.00;100297.44;4993967;28;20203;-77
2022/03/01 01:08:21;;;;;;;5.83;5.33;;;;;;;2.32;100.00;100296.66;4993986;28;20198;-77
2022/03/01 01:10:48;;;;;;;5.50;4.73;;;;;;;2.13;100.00;100286.94;4993867;28;20311;-77
2022/03/01 01:13:16;;;;;;;5.97;5.33;;;;;;;2.12;100.00;100283.50;4994018;28;20203;-77
2022/03/01 01:15:43;;;;;;;6.17;5.67;;;;;;;2.22;100.00;100296.47;4993561;28;20214;-76
2022/03/01 01:18:10;;;;;;;6.00;5.40;;;;;;;2.05;100.00;100260.31;4994316;28;20591;-77
2022/03/01 01:20:37;;;;;;;5.83;5.30;;;;;;;2.16;100.00;100295.50;4993431;28;20199;-76
2022/03/01 01:23:06;;;;;;;7.03;5.70;;;;;;;2.18;100.00;100293.84;4993660;28;20361;-77
2022/03/01 01:25:34;;;;;;;6.50;5.90;;;;;;;2.27;100.00;100302.50;4993894;28;20203;-78
2022/03/01 01:28:01;;;;;;;6.40;5.80;;;;;;;2.28;100.00;100299.13;4993984;28;20195;-77
2022/03/01 01:30:30;;;;;;;6.27;5.70;;;;;;;2.18;100.00;100269.94;4993942;28;20207;-78
2022/03/01 01:32:57;;;;;;;6.67;6.07;;;;;;;2.31;100.00;100300.03;4993484;28;20205;-79
2022/03/01 01:35:26;;;;;;;6.67;6.07;;;;;;;2.29;100.00;100295.72;4993155;28;20702;-78
2022/03/01 01:37:54;;;;;;;6.67;6.07;;;;;;;2.21;100.00;100287.06;4993598;28;20231;-78
2022/03/01 01:40:24;;;;;;;6.40;5.80;;;;;;;2.31;100.00;100304.31;4993435;28;20679;-77
2022/03/01 01:42:52;;;;;;;7.17;6.00;;;;;;;2.26;100.00;100298.25;4993402;28;20308;-78
2022/03/01 01:45:20;;;;;;;6.13;5.53;;;;;;;2.20;100.00;100301.56;4993519;28;20658;-77
2022/03/01 01:47:48;;;;;;;7.00;6.40;;;;;;;2.28;100.00;100304.25;4991801;28;20221;-76
2022/03/01 01:50:16;;;;;;;5.83;5.37;;;;;;;2.08;100.00;100283.41;4993054;28;20588;-77
2022/03/01 01:52:45;;;;;;;6.00;5.50;;;;;;;2.17;100.00;100299.81;4993627;28;20201;-77
2022/03/01 01:55:11;;;;;;;6.80;5.80;;;;;;;1.84;100.00;100258.22;4993030;28;20207;-77
2022/03/01 01:57:40;;;;;;;6.80;6.20;;;;;;;2.19;100.00;100308.38;4992864;28;20207;-77
2022/03/01 02:00:09;;;;;;;8.43;6.50;;;;;;;2.01;100.00;100300.38;4993276;28;20596;-77
2022/03/01 02:02:36;;;;;;;7.13;6.37;;;;;;;2.00;100.00;100297.78;4992873;28;20235;-77
2022/03/01 02:05:04;;;;;;;6.07;5.47;;;;;;;1.88;100.00;100295.88;4993394;28;20207;-77
2022/03/01 02:07:31;;;;;;;7.90;6.43;;;;;;;1.78;100.00;100273.50;4993069;28;20753;-77
2022/03/01 02:09:58;;;;;;;8.67;6.23;;;;;;;1.85;100.00;100289.81;4992785;28;20205;-78
2022/03/01 02:12:25;;;;;;;8.13;6.70;;;;;;;1.76;100.00;100270.91;4992764;28;20295;-79
2022/03/01 02:14:53;;;;;;;7.20;6.50;;;;;;;1.55;100.00;100247.47;4992988;28;20199;-78
2022/03/01 02:17:21;;;;;;;9.47;6.53;;;;;;;1.57;100.00;100250.06;4992787;28;20665;-78
2022/03/01 02:19:50;;;;;;;7.57;6.80;;;;;;;1.42;100.00;100225.91;4992500;28;20257;-77
2022/03/01 02:22:19;;;;;;;7.43;6.73;;;;;;;1.78;100.00;100276.91;4992484;28;20203;-78
2022/03/01 02:24:46;;;;;;;8.90;7.60;;;;;;;1.72;100.00;100251.19;4992725;28;20225;-77
2022/03/01 02:27:14;;;;;;;8.20;7.10;;;;;;;1.68;100.00;100266.47;4992224;28;20207;-77
2022/03/01 02:29:41;;;;;;;8.03;7.23;;;;;;;1.48;100.00;100243.06;4992361;28;20200;-78
2022/03/01 02:32:10;;;;;;;7.90;7.10;;;;;;;1.56;100.00;100254.31;4992075;28;20196;-78
2022/03/01 02:34:37;;;;;;;7.83;7.13;;;;;;;1.72;100.00;100250.34;4992185;28;20589;-78
2022/03/01 02:37:05;;;;;;;8.77;7.50;;;;;;;1.83;100.00;100249.69;4992386;28;20295;-77
2022/03/01 02:39:33;;;;;;;10.07;7.30;;;;;;;1.87;100.00;100242.94;4992316;28;20205;-77
2022/03/01 02:42:00;;;;;;;8.23;7.17;;;;;;;1.83;100.00;100248.84;4992061;28;20557;-77
2022/03/01 02:44:27;;;;;;;8.43;7.30;;;;;;;1.89;100.00;100241.28;4991830;28;20224;-78
2022/03/01 02:46:54;;;;;;;8.10;7.30;;;;;;;1.96;100.00;100240.53;4992142;28;20212;-78
2022/03/01 02:49:22;;;;;;;8.27;6.83;;;;;;;1.90;100.00;100225.09;4991956;28;20191;-78
2022/03/01 02:51:48;;;;;;;10.43;7.23;;;;;;;2.04;100.00;100243.22;4991901;28;20202;-78
2022/03/01 02:54:16;;;;;;;9.30;7.70;;;;;;;1.96;100.00;100227.75;4992103;28;20218;-77
2022/03/01 02:56:44;;;;;;;9.43;7.63;;;;;;;1.98;100.00;100236.31;4991633;28;20208;-77
2022/03/01 02:59:11;;;;;;;8.00;7.20;;;;;;;1.79;100.00;100216.38;4991320;28;20205;-77
2022/03/01 03:01:38;;;;;;;10.90;7.47;;;;;;;1.88;100.00;100242.09;4991686;28;20200;-77
2022/03/01 03:04:05;;;;;;;8.00;7.20;;;;;;;1.80;100.00;100238.56;4991571;28;20228;-78
2022/03/01 03:06:32;;;;;;;8.80;7.87;;;;;;;1.76;100.00;100227.41;4991584;28;20334;-78
2022/03/01 03:08:59;;;;;;;9.97;8.33;;;;;;;1.80;100.00;100233.44;4990995;28;20211;-77
2022/03/01 03:11:27;;;;;;;10.10;8.07;;;;;;;1.68;100.00;100238.34;4991792;28;20286;-77
2022/03/01 03:13:55;;;;;;;10.13;8.43;;;;;;;1.34;100.00;100196.78;4991610;28;20192;-77
2022/03/01 03:16:22;;;;;;;14.03;9.73;;;;;;;1.41;100.00;100224.19;4991534;28;20203;-77
2022/03/01 03:18:49;;;;;;;13.10;9.53;;;;;;;1.50;100.00;100245.66;4991493;28;20594;-77
2022/03/01 03:21:16;;;;;;;10.67;9.03;;;;;;;1.48;100.00;100244.75;4991542;28;20199;-78
2022/03/01 03:23:43;;;;;;;13.90;9.77;;;;;;;1.42;100.00;100246.38;4990991;28;20714;-78
2022/03/01 03:26:10;;;;;;;15.07;9.87;;;;;;;1.23;100.00;100231.50;4991174;28;20206;-77
2022/03/01 03:28:37;;;;;;;11.60;9.50;;;;;;;1.19;100.00;100242.50;4991224;28;20592;-77
2022/03/01 03:31:05;;;;;;;14.53;10.00;;;;;;;1.01;100.00;100242.13;4991229;28;20205;-77
2022/03/01 03:33:32;;;;;;;14.80;10.40;;;;;;;0.95;100.00;100250.50;4990866;28;20595;-77
2022/03/01 03:35:59;;;;;;;14.03;10.77;;;;;;;0.85;100.00;100246.03;4991225;28;20316;-78
2022/03/01 03:38:26;;;;;;;14.00;10.63;;;;;;;0.83;100.00;100246.81;4990811;28;20202;-77
2022/03/01 03:40:53;;;;;;;14.40;10.30;;;;;;;1.00;100.00;100250.63;4991310;28;20216;-77
2022/03/01 03:43:21;;;;;;;16.00;11.17;;;;;;;1.11;100.00;100253.41;4991195;28;20219;-77
2022/03/01 03:45:48;;;;;;;15.00;9.80;;;;;;;1.16;100.00;100250.09;4991026;28;20213;-77
2022/03/01 03:48:17;;;;;;;15.47;10.37;;;;;;;1.33;100.00;100248.75;4990978;28;20199;-77
2022/03/01 03:50:44;;;;;;;12.03;9.37;;;;;;;1.29;100.00;100240.97;4991203;28;20837;-77
2022/03/01 03:53:11;;;;;;;14.87;10.43;;;;;;;1.28;100.00;100244.38;4991026;28;20201;-77
2022/03/01 03:55:38;;;;;;;12.40;10.20;;;;;;;1.24;100.00;100240.03;4990769;28;20202;-77
2022/03/01 03:58:05;;;;;;;14.33;10.10;;;;;;;0.96;100.00;100187.47;4991513;28;20629;-78
2022/03/01 04:00:32;;;;;;;16.17;11.27;;;;;;;1.31;100.00;100242.75;4990636;28;20201;-77
2022/03/01 04:02:59;;;;;;;13.83;10.93;;;;;;;1.31;100.00;100234.22;4990355;28;20215;-75
2022/03/01 04:05:28;;;;;;;15.57;10.87;;;;;;;1.19;100.00;100234.81;4990493;28;20581;-78
2022/03/01 04:07:54;;;;;;;14.83;11.90;;;;;;;1.19;100.00;100226.28;4989858;28;20220;-79
2022/03/01 04:10:22;;;;;;;15.90;11.60;;;;;;;1.26;100.00;100223.88;4991469;28;20198;-78
2022/03/01 04:12:48;;;;;;;16.80;12.03;;;;;;;1.21;100.00;100194.81;4993917;28;20649;-78
2022/03/01 04:15:15;;;;;;;13.83;11.20;;;;;;;1.42;100.00;100209.69;4993555;28;20214;-79
2022/03/01 04:17:43;;;;;;;14.70;10.77;;;;;;;1.36;100.00;100200.19;4993722;28;20204;-78
2022/03/01 04:20:11;;;;;;;14.03;11.03;;;;;;;1.54;100.00;100215.03;4994941;28;20191;-79
2022/03/01 04:22:40;;;;;;;13.77;10.70;;;;;;;1.30;100.00;100189.88;5004039;28;20218;-78
2022/03/01 04:25:10;;;;;;;13.63;10.77;;;;;;;1.40;100.00;100201.13;4999404;28;20595;-79
2022/03/01 04:27:37;;;;;;;17.93;11.47;;;;;;;1.54;100.00;100224.41;4997422;28;20249;-79
2022/03/01 04:30:05;;;;;;;16.83;10.97;;;;;;;1.53;100.00;100225.25;4996620;28;20228;-78
2022/03/01 04:32:31;;;;;;;13.07;10.77;;;;;;;1.69;100.00;100224.72;5003709;28;20677;-78
2022/03/01 04:34:58;;;;;;;15.27;11.57;;;;;;;1.68;100.00;100223.84;4995724;28;20293;-79
2022/03/01 04:37:25;;;;;;;15.20;10.60;;;;;;;1.56;100.00;100230.44;5000881;28;20203;-78
2022/03/01 04:39:54;;;;;;;17.27;11.67;;;;;;;1.32;100.00;100189.91;5003029;28;20690;-78
2022/03/01 04:42:21;;;;;;;13.80;10.10;;;;;;;1.62;100.00;100223.72;4999919;28;20196;-79
2022/03/01 04:44:48;;;;;;;18.40;10.63;;;;;;;1.46;100.00;100180.81;4993251;28;20219;-78
2022/03/01 04:47:15;;;;;;;15.17;10.60;;;;;;;1.69;100.00;100222.16;4993189;28;20199;-78
2022/03/01 04:49:42;;;;;;;15.70;10.70;;;;;;;1.39;100.00;100228.41;4993066;28;20651;-78
2022/03/01 04:52:09;;;;;;;16.07;11.00;;;;;;;1.37;100.00;100227.50;4992979;28;20225;-78
2022/03/01 04:54:36;;;;;;;14.07;10.67;;;;;;;1.32;100.00;100225.72;4992617;28;20197;-78
2022/03/01 04:57:04;;;;;;;11.97;9.97;;;;;;;1.38;100.00;100231.78;4992577;28;20199;-79
2022/03/01 04:59:31;;;;;;;12.70;10.67;;;;;;;1.51;100.00;100244.81;4992714;28;20200;-76
2022/03/01 05:01:58;;;;;;;13.23;10.80;;;;;;;1.57;100.00;100239.84;4992523;28;20199;-78
2022/03/01 05:04:25;;;;;;;16.33;11.57;;;;;;;1.55;100.00;100226.16;4992612;28;20716;-77
2022/03/01 05:06:52;;;;;;;14.67;11.03;;;;;;;1.60;100.00;100220.25;4994208;28;20658;-78
2022/03/01 05:09:21;;;;;;;15.47;11.63;;;;;;;1.67;100.00;100204.22;4993572;28;20195;-79
2022/03/01 05:11:48;;;;;;;14.93;11.57;;;;;;;1.85;100.00;100229.25;4993561;28;20246;-79
2022/03/01 05:14:20;;;;;;;15.57;10.97;;;;;;;1.95;100.00;100235.38;4993258;28;20230;-77
2022/03/01 05:16:47;;;;;;;15.70;11.07;;;;;;;2.01;100.00;100259.41;4992975;28;20202;-75
2022/03/01 05:19:15;;;;;;;17.17;11.80;;;;;;;2.09;100.00;100257.84;4993111;28;20212;-78
2022/03/01 05:21:42;;;;;;;18.03;14.13;;;;;;;1.96;100.00;100229.44;4992891;28;20249;-78
2022/03/01 05:24:09;;;;;;;20.47;14.63;;;;;;;2.20;100.00;100255.47;4993329;28;20728;-76
2022/03/01 05:26:36;;;;;;;20.10;13.50;;;;;;;2.03;100.00;100226.16;4993317;28;20212;-79
2022/03/01 05:29:03;;;;;;;20.60;13.23;;;;;;;2.10;100.00;100245.91;4993435;28;20236;-76
2022/03/01 05:31:32;;;;;;;17.53;13.03;;;;;;;2.04;100.00;100251.75;4993171;28;20240;-77
2022/03/01 05:33:59;;;;;;;17.13;12.60;;;;;;;1.83;100.00;100225.78;4993360;28;20207;-76
2022/03/01 05:36:29;;;;;;;18.20;13.23;;;;;;;1.94;100.00;100236.22;4993074;28;20206;-76
2022/03/01 05:38:55;;;;;;;20.03;14.07;;;;;;;2.18;100.00;100273.34;4993529;28;20221;-76
2022/03/01 05:41:24;;;;;;;20.13;14.50;;;;;;;2.22;100.00;100279.41;4993206;28;20283;-75
2022/03/01 05:43:50;;;;;;;27.17;15.47;;;;;;;2.23;100.00;100281.13;4992973;28;20223;-76
2022/03/01 05:46:17;;;;;;;18.03;13.30;;;;;;;2.20;100.00;100281.06;4992763;28;20205;-76
2022/03/01 05:48:46;;;;;;;18.13;12.40;;;;;;;1.82;100.00;100237.72;4993258;28;20206;-75
2022/03/01 05:51:13;;;;;;;19.87;12.80;;;;;;;1.90;100.00;100271.16;4993767;28;20670;-77
2022/03/01 05:53:41;;;;;;;20.27;13.63;;;;;;;2.04;100.00;100286.75;4992875;28;20206;-77
2022/03/01 05:56:08;;;;;;;20.60;13.70;;;;;;;2.10;100.00;100287.72;4990722;28;20551;-76
2022/03/01 05:58:34;;;;;;;16.37;12.70;;;;;;;2.08;100.00;100289.41;4992059;28;20227;-76
2022/03/01 06:01:01;;;;;;;18.77;13.17;;;;;;;2.17;100.00;100271.63;4992070;28;20228;-76
2022/03/01 06:03:28;;;;;;;18.33;12.60;;;;;;;2.21;100.00;100272.56;4991492;28;20242;-77
2022/03/01 06:05:56;;;;;;;18.30;13.33;;;;;;;2.14;100.00;100268.16;4992702;28;20692;-77
2022/03/01 06:08:23;;;;;;;23.20;13.93;;;;;;;2.16;100.00;100275.03;4992704;28;20213;-76
2022/03/01 06:10:50;;;;;;;24.47;15.17;;;;;;;2.13;100.00;100285.25;4992844;28;20567;-76
2022/03/01 06:13:17;;;;;;;27.97;16.30;;;;;;;2.38;100.00;100301.84;4992245;28;20207;-78
2022/03/01 06:15:44;;;;;;;28.13;18.40;;;;;;;2.35;100.00;100301.84;4992859;28;20220;-75
2022/03/01 06:18:11;;;;;;;23.53;15.07;;;;;;;2.26;100.00;100309.34;4992662;28;20288;-75
2022/03/01 06:20:39;;;;;;;17.47;13.43;;;;;;;2.25;100.00;100315.31;4993069;28;20655;-74
2022/03/01 06:23:07;;;;;;;18.87;12.80;;;;;;;2.05;100.00;100281.66;4992076;28;20286;-74
2022/03/01 06:25:34;;;;;;;19.17;13.20;;;;;;;2.14;100.00;100317.66;4992001;28;20247;-75
2022/03/01 06:28:01;;;;;;;19.10;13.57;;;;;;;2.03;100.00;100319.16;4992305;28;20239;-76
2022/03/01 06:30:28;;;;;;;21.13;13.70;;;;;;;2.12;100.00;100313.38;4992077;28;20210;-75
2022/03/01 06:32:55;;;;;;;20.73;13.47;;;;;;;2.14;100.00;100317.66;4991974;28;20250;-75
2022/03/01 06:35:22;;;;;;;20.30;12.57;;;;;;;2.11;100.00;100314.22;4992014;28;20206;-75
2022/03/01 06:37:49;;;;;;;16.73;12.40;;;;;;;2.12;100.00;100321.91;4991998;28;20204;-74
2022/03/01 06:40:18;;;;;;;14.77;11.67;;;;;;;2.09;100.00;100321.84;4993140;28;20685;-74
2022/03/01 06:42:47;;;;;;;21.17;12.80;;;;;;;1.80;100.00;100289.75;4992490;28;20198;-75
2022/03/01 06:45:14;;;;;;;22.17;12.03;;;;;;;1.97;100.00;100324.19;4992338;28;20229;-74
2022/03/01 06:47:41;;;;;;;21.97;13.23;;;;;;;1.87;100.00;100329.09;4992324;28;20205;-74
2022/03/01 06:50:10;;;;;;;22.60;14.40;;;;;;;1.80;100.00;100310.22;4992404;28;20293;-74
2022/03/01 06:52:37;;;;;;;25.40;14.17;;;;;;;1.86;100.00;100310.31;4992343;28;20209;-74
2022/03/01 06:55:06;;;;;;;24.03;13.77;;;;;;;2.06;100.00;100314.13;4992264;28;20195;-75
2022/03/01 06:57:34;;;;;;;19.23;13.43;;;;;;;2.28;100.00;100317.03;4992116;28;20205;-75
2022/03/01 07:00:01;;;;;;;19.97;13.87;;;;;;;2.42;100.00;100330.97;4992265;28;20222;-76
2022/03/01 07:02:29;;;;;;;23.73;15.43;;;;;;;2.30;100.00;100325.63;4992290;28;20217;-75
2022/03/01 07:04:56;;;;;;;22.83;14.50;;;;;;;2.46;100.00;100328.50;4992137;28;20236;-74
2022/03/01 07:07:23;;;;;;;22.37;14.03;;;;;;;2.38;100.00;100312.09;4990989;28;20231;-74
2022/03/01 07:09:50;;;;;;;24.73;14.63;;;;;;;2.67;100.00;100330.53;4991520;28;20663;-75
2022/03/01 07:12:17;;;;;;;22.73;14.10;;;;;;;2.53;100.00;100296.13;4991639;28;20209;-74
2022/03/01 07:14:46;;;;;;;19.90;13.03;;;;;;;2.70;100.00;100310.09;4992066;28;20559;-74
2022/03/01 07:17:12;;;;;;;17.67;12.13;;;;;;;2.69;100.00;100328.00;4991985;28;20693;-75
2022/03/01 07:19:39;;;;;;;20.50;12.60;;;;;;;2.77;100.00;100322.16;4991859;28;20703;-75
2022/03/01 07:22:06;;;;;;;19.73;12.30;;;;;;;2.90;100.00;100326.63;4991917;28;20296;-76
2022/03/01 07:24:33;;;;;;;14.63;10.70;;;;;;;3.13;100.00;100321.84;4991772;28;20228;-74
2022/03/01 07:27:00;;;;;;;16.93;10.70;;;;;;;3.27;100.00;100325.44;4991847;28;20208;-74
2022/03/01 07:29:27;;;;;;;16.60;10.90;;;;;;;3.50;100.00;100320.59;4991632;28;20202;-75
2022/03/01 07:31:55;;;;;;;19.53;11.80;;;;;;;3.46;100.00;100320.56;4991681;28;20647;-73
2022/03/01 07:34:22;;;;;;;16.03;10.80;;;;;;;3.62;100.00;100325.88;4991707;28;20697;-75
2022/03/01 07:36:49;;;;;;;20.80;11.57;;;;;;;3.77;100.00;100326.91;4991916;28;20575;-75
2022/03/01 07:39:16;;;;;;;20.40;11.57;;;;;;;3.88;100.00;100320.19;4991693;28;20207;-75
2022/03/01 07:41:43;;;;;;;14.43;10.57;;;;;;;4.15;100.00;100325.63;4990791;28;20225;-74
2022/03/01 07:44:10;;;;;;;13.03;10.10;;;;;;;4.32;100.00;100326.63;4991423;28;20268;-75
2022/03/01 07:46:37;;;;;;;13.20;9.80;;;;;;;4.57;100.00;100329.44;4991401;28;20202;-75
2022/03/01 07:49:06;;;;;;;14.60;10.57;;;;;;;4.90;100.00;100331.41;4991697;28;20199;-75
2022/03/01 07:51:33;;;;;;;11.70;8.80;;;;;;;4.74;100.00;100299.56;4991238;28;20198;-76
2022/03/01 07:54:00;;;;;;;11.03;8.67;;;;;;;5.14;99.36;100329.00;4991537;28;20195;-78
2022/03/01 07:56:27;;;;;;;13.47;8.17;;;;;;;4.92;98.87;100302.28;4991324;28;20205;-75
2022/03/01 07:58:54;;;;;;;14.47;10.47;;;;;;;5.03;98.26;100341.78;4990557;28;20699;-75
2022/03/01 08:01:22;;;;;;;13.40;9.33;;;;;;;4.81;99.78;100342.50;4995956;28;20198;-77
2022/03/01 08:03:50;;;;;;;16.15;9.95;;;;;;;4.66;99.59;100332.94;4990976;28;20216;-75
2022/03/01 08:06:19;;;;;;;12.70;9.23;;;;;;;4.42;100.00;100311.28;4989440;28;20199;-76
2022/03/01 08:08:46;;;;;;;12.90;9.30;;;;;;;4.59;100.00;100356.03;4989864;28;20641;-75
2022/03/01 08:11:16;;;;;;;9.87;8.87;;;;;;;4.53;100.00;100343.97;4989741;28;20225;-74
2022/03/01 08:13:43;;;;;;;12.10;8.67;;;;;;;4.59;100.00;100359.44;4989681;28;20281;-74
2022/03/01 08:16:11;;;;;;;11.33;9.30;;;;;;;4.44;100.00;100345.59;4989151;28;20205;-75
2022/03/01 08:18:38;;;;;;;11.60;9.10;;;;;;;4.46;100.00;100352.47;4988958;28;20199;-75
2022/03/01 08:21:07;;;;;;;12.87;9.60;;;;;;;4.64;100.00;100359.47;4989235;28;20261;-74
2022/03/01 08:23:36;;;;;;;10.73;8.97;;;;;;;4.56;100.00;100325.13;4989716;28;20306;-76
2022/03/01 08:26:04;;;;;;;11.50;9.53;;;;;;;4.79;99.41;100364.75;4989740;28;20223;-75
2022/03/01 08:28:34;;;;;;;11.40;10.10;;;;;;;4.86;98.25;100361.38;4989823;28;20199;-77
2022/03/01 08:31:03;;;;;;;12.73;9.43;;;;;;;4.65;98.68;100366.34;4987554;28;20305;-76
2022/03/01 08:33:30;;;;;;;10.17;9.07;;;;;;;4.83;98.54;100368.22;4988203;28;20309;-76
2022/03/01 08:36:01;;;;;;;12.57;9.10;;;;;;;4.98;98.39;100364.03;4989431;28;20416;-76
2022/03/01 08:38:28;;;;;;;12.33;9.27;;;;;;;5.09;97.78;100370.13;4989141;28;20217;-76
2022/03/01 08:40:57;;;;;;;9.70;8.67;;;;;;;5.07;97.50;100353.84;4989552;28;20277;-77
2022/03/01 08:43:26;;;;;;;10.97;9.50;;;;;;;5.01;97.72;100333.19;4989722;28;20194;-76
2022/03/01 08:45:53;;;;;;;11.77;8.83;;;;;;;5.36;97.15;100363.44;4989276;28;20222;-77
2022/03/01 08:48:22;;;;;;;15.13;8.93;;;;;;;5.14;97.56;100357.31;4989504;28;20540;-79
2022/03/01 08:50:50;;;;;;;16.97;11.47;;;;;;;5.18;97.23;100348.75;4989275;28;20257;-74
2022/03/01 08:53:19;;;;;;;17.10;11.97;;;;;;;5.39;97.33;100356.59;4988927;28;20203;-74
2022/03/01 08:55:47;;;;;;;16.13;11.03;;;;;;;5.51;96.99;100350.66;4989666;28;20201;-75
2022/03/01 08:58:15;;;;;;;14.03;10.47;;;;;;;5.58;97.11;100336.94;4992326;28;20583;-74
2022/03/01 09:00:43;;;;;;;17.83;11.20;;;;;;;5.72;97.27;100352.47;4992038;28;20756;-75
2022/03/01 09:03:10;;;;;;;13.37;10.30;;;;;;;5.70;96.93;100349.88;4992463;28;20194;-75
2022/03/01 09:05:37;;;;;;;16.43;10.53;;;;;;;5.61;95.39;100347.28;4992178;28;20230;-75
2022/03/01 09:08:04;;;;;;;12.97;10.93;;;;;;;5.57;95.87;100334.38;4992808;28;20289;-76
2022/03/01 09:10:31;;;;;;;18.40;11.53;;;;;;;5.36;97.25;100335.97;4992304;28;20290;-75
2022/03/01 09:12:59;;;;;;;17.63;13.27;;;;;;;5.39;97.48;100348.00;4992284;28;20195;-77
2022/03/01 09:15:31;;;;;;;17.07;12.37;;;;;;;5.48;96.79;100355.78;4992094;28;20595;-78
2022/03/01 09:17:58;;;;;;;17.63;12.33;;;;;;;5.53;96.38;100319.78;4992497;28;20199;-76
2022/03/01 09:20:26;;;;;;;16.40;12.27;;;;;;;5.73;95.54;100342.19;4992046;28;20257;-78
2022/03/01 09:22:54;;;;;;;15.00;11.83;;;;;;;5.72;94.25;100357.63;4992347;28;20253;-75
2022/03/01 09:25:21;;;;;;;19.17;12.47;;;;;;;5.90;94.89;100354.28;4992011;28;20226;-76
2022/03/01 09:27:48;;;;;;;15.23;11.93;;;;;;;6.10;94.82;100338.00;4992315;28;20216;-77
2022/03/01 09:30:16;;;;;;;18.77;13.27;;;;;;;6.39;93.41;100350.09;4992541;28;20225;-77
2022/03/01 09:32:44;;;;;;;20.67;13.37;;;;;;;6.11;93.94;100303.66;4992433;28;20206;-78
2022/03/01 09:35:12;;;;;;;19.93;13.50;;;;;;;6.57;93.13;100348.41;4992913;28;20198;-78
2022/03/01 09:37:41;;;;;;;19.30;11.90;;;;;;;6.66;88.87;100341.53;4992858;28;20205;-76
2022/03/01 09:40:11;;;;;;;14.27;11.63;;;;;;;6.65;88.10;100340.69;4992662;28;20289;-76
2022/03/01 09:42:39;;;;;;;13.73;11.27;;;;;;;6.93;87.32;100349.25;4992284;28;20257;-76
2022/03/01 09:45:08;;;;;;;11.97;10.70;;;;;;;7.08;86.98;100354.41;4991564;28;20224;-77
2022/03/01 09:47:35;;;;;;;11.63;9.97;;;;;;;7.05;84.82;100354.41;4991620;28;20743;-77
2022/03/01 09:50:10;;;;;;;13.20;9.93;;;;;;;7.15;83.01;100363.88;4992495;28;20681;-77
2022/03/01 09:52:37;;;;;;;10.30;8.40;;;;;;;7.36;80.15;100360.38;4991296;28;20210;-76
2022/03/01 09:55:06;;;;;;;9.53;8.37;;;;;;;7.58;78.06;100371.50;4991439;28;20191;-76
2022/03/01 09:57:33;;;;;;;9.67;8.47;;;;;;;7.38;77.65;100317.34;4991521;28;20217;-76
2022/03/01 10:00:00;;;;;;;7.70;6.80;;;;;;;7.21;77.45;100303.63;4991059;28;20677;-78
2022/03/01 10:02:34;;;;;;;8.23;6.90;;;;;;;7.49;78.47;100356.03;4992179;28;20596;-76
2022/03/01 10:05:01;;;;;;;10.33;8.63;;;;;;;6.99;79.46;100305.41;4992251;28;20222;-76
2022/03/01 10:07:32;;;;;;;10.43;9.37;;;;;;;7.21;80.95;100299.31;4991316;28;20241;-77
2022/03/01 10:10:06;;;;;;;10.80;8.63;;;;;;;7.44;81.53;100332.81;4992204;28;20698;-77
2022/03/01 10:12:33;;;;;;;10.43;9.33;;;;;;;6.92;80.62;100330.34;4992002;28;20285;-76
2022/03/01 10:15:03;;;;;;;11.80;9.70;;;;;;;7.01;81.38;100328.59;4991741;28;20225;-77
2022/03/01 10:17:37;;;;;;;10.60;8.87;;;;;;;7.02;81.26;100318.28;4992119;28;20615;-76
2022/03/01 10:20:06;;;;;;;9.13;7.93;;;;;;;6.86;80.54;100320.03;4991509;28;20636;-76
2022/03/01 10:22:37;;;;;;;17.27;9.70;;;;;;;6.89;81.41;100316.56;4972668;28;20695;-76
2022/03/01 10:25:07;;;;;;;11.10;9.03;;;;;;;6.63;82.00;100269.31;4972984;28;20228;-77
2022/03/01 10:27:35;;;;;;;8.50;7.63;;;;;;;6.64;81.18;100312.31;4975474;28;20593;-76
2022/03/01 10:30:02;;;;;;;6.23;5.63;;;;;;;6.60;76.82;100314.00;4991754;28;20198;-76
2022/03/01 10:32:29;;;;;;;5.87;5.23;;;;;;;6.73;76.45;100307.13;4991428;28;20205;-78
2022/03/01 10:34:58;;;;;;;10.30;7.47;;;;;;;6.88;73.45;100307.97;4992035;28;20305;-77
2022/03/01 10:37:27;;;;;;;10.67;7.17;;;;;;;6.77;74.71;100275.31;4991898;28;20209;-77
2022/03/01 10:43:02;;;;;;;8.87;7.70;;;;;;;7.50;78.07;100290.59;5087871;27;20544;-76
2022/03/01 10:45:34;;;;;;;8.27;6.73;;;;;;;7.52;77.58;100281.13;5087908;28;20286;-77
2022/03/01 10:48:01;;;;;;;5.20;4.80;;;;;;;7.48;69.54;100287.16;5087971;28;20195;-76
2022/03/01 10:50:28;;;;;;;4.67;4.27;;;;;;;7.44;66.28;100265.69;5087904;28;20203;-76
2022/03/01 10:52:55;;;;;;;4.67;4.27;;;;;;;7.52;67.43;100273.38;5087922;28;20196;-77
2022/03/01 10:55:24;;;;;;;5.20;4.80;;;;;;;6.81;66.96;100231.44;5087996;28;20235;-77
2022/03/01 10:58:03;;;;;;;5.23;4.80;;;;;;;7.07;67.09;100217.59;5087958;28;20214;-78
2022/03/01 11:00:31;;;;;;;5.27;4.77;;;;;;;7.29;65.83;100245.94;5087508;28;20195;-76
2022/03/01 11:02:58;;;;;;;5.40;5.00;;;;;;;7.51;66.22;100256.16;5088081;28;20199;-78
2022/03/01 11:05:25;;;;;;;6.50;5.43;;;;;;;7.69;66.22;100268.97;5087586;28;20199;-76
2022/03/01 11:07:54;;;;;;;5.73;5.33;;;;;;;7.79;65.02;100262.88;5087239;28;20205;-78
2022/03/01 11:10:22;;;;;;;5.47;5.07;;;;;;;7.82;65.17;100239.63;5087646;28;20200;-78
2022/03/01 11:12:53;;;;;;;6.53;5.37;;;;;;;8.15;64.73;100261.81;5087470;28;20223;-77
2022/03/01 11:15:32;;;;;;;5.17;4.77;;;;;;;7.92;63.39;100248.16;5087895;28;20227;-78
2022/03/01 11:18:14;;;;;;;7.83;6.37;;;;;;;8.15;64.09;100253.19;5087777;28;20286;-78
2022/03/01 11:20:45;;;;;;;6.17;5.33;;;;;;;8.20;63.00;100223.84;5087293;28;20623;-76
2022/03/01 11:23:15;;;;;;;10.40;7.00;;;;;;;7.84;63.34;100200.84;5087114;28;20200;-76
2022/03/01 11:25:46;;;;;;;5.93;5.43;;;;;;;7.97;63.58;100234.38;5087060;28;20235;-77